WetterOnline ( https://www.wetteronline.ch )

Wetter aktuell München

Aktuelles Wetter: München/Stadt (535m)

6-stündlich | Neueste Meldungen
Ortszeit Temperatur Wetter
Di, 18.02. 7:00 5.4° C bewölkt
Di, 18.02. 1:00 7.2° C bedeckt
Mo, 17.02. 19:00 8.8° C bedeckt
Mo, 17.02. 13:00 13.6° C bedeckt
Mo, 17.02. 7:00 13.7° C wolkig
Mo, 17.02. 1:00 14.5° C bedeckt
So, 16.02. 19:00 12.7° C bedeckt
So, 16.02. 13:00 15.0° C bedeckt
Ortszeit Temperatur Wetter
Di, 18.02. 8:10 5.4° C leicht bewölkt
Di, 18.02. 8:00 5.5° C leicht bewölkt
Di, 18.02. 7:50 5.5° C leicht bewölkt
Di, 18.02. 7:40 5.6° C leicht bewölkt
Di, 18.02. 7:30 5.7° C bewölkt
Di, 18.02. 7:20 5.7° C bewölkt
Di, 18.02. 7:00 5.4° C bewölkt
Di, 18.02. 6:30 4.8° C bewölkt
Di, 18.02. 6:00 5.0° C bedeckt
Ortszeit Relative Feuchte Sichtweite
Di, 18.02. 7:00 65% 55 km
Di, 18.02. 1:00 69% 55 km
Mo, 17.02. 19:00 79% >70 km
Mo, 17.02. 13:00 53% 45 km
Mo, 17.02. 7:00 50% 65 km
Mo, 17.02. 1:00 32% 65 km
So, 16.02. 19:00 42% 60 km
So, 16.02. 13:00 30% >70 km
Ortszeit Relative Feuchte Sichtweite
Di, 18.02. 8:10 62% -
Di, 18.02. 8:00 63% 65 km
Di, 18.02. 7:50 63% -
Di, 18.02. 7:40 62% -
Di, 18.02. 7:30 62% 55 km
Di, 18.02. 7:20 62% -
Di, 18.02. 7:00 65% 55 km
Di, 18.02. 6:30 70% 50 km
Di, 18.02. 6:00 69% 55 km
Ortszeit Niederschlagsmenge Niederschlagsart
Di, 18.02. 7:00 0.1 l/m2 in 12 Std. -
Di, 18.02. 1:00 0.1 l/m2 in 6 Std. Regen
Mo, 17.02. 19:00 0.7 l/m2 in 12 Std. Regen
Mo, 17.02. 13:00 0.0 l/m2 in 6 Std. -
Mo, 17.02. 7:00 0.0 l/m2 in 12 Std. -
Mo, 17.02. 1:00 0.0 l/m2 in 6 Std. -
So, 16.02. 19:00 0.0 l/m2 in 12 Std. -
So, 16.02. 13:00 0.0 l/m2 in 6 Std. -
Ortszeit Niederschlagsmenge Niederschlagsart
Di, 18.02. 8:10 keine Meldung -
Di, 18.02. 8:00 0.0 l/m2 in 1 Std. -
Di, 18.02. 7:50 keine Meldung -
Di, 18.02. 7:40 keine Meldung -
Di, 18.02. 7:30 0.0 l/m2 in 1 Std. -
Di, 18.02. 7:20 keine Meldung -
Di, 18.02. 7:00 0.0 l/m2 in 1 Std. -
Di, 18.02. 6:30 0.0 l/m2 in 1 Std. -
Di, 18.02. 6:00 0.0 l/m2 in 1 Std. -
Ortszeit Stärke Spitze Richtung
km/h Bft. km/h Grad Sektor
Di, 18.02. 7:00 15 3 54 240° SW
Di, 18.02. 1:00 18 3 50 260° W
Mo, 17.02. 19:00 24 4 41 260° W
Mo, 17.02. 13:00 7 2 36 150° SO
Mo, 17.02. 7:00 22 4 36 260° W
Mo, 17.02. 1:00 13 3 30 210° SW
So, 16.02. 19:00 9 2 30 280° W
So, 16.02. 13:00 7 2 22 160° S
Ortszeit Stärke Spitze Richtung
km/h Bft. km/h Grad Sektor
Di, 18.02. 8:10 22 4 - 260° W
Di, 18.02. 8:00 22 4 47 260° W
Di, 18.02. 7:50 22 4 - 260° W
Di, 18.02. 7:40 20 4 - 260° W
Di, 18.02. 7:30 18 3 32 260° W
Di, 18.02. 7:20 18 3 - 260° W
Di, 18.02. 7:00 15 3 30 240° SW
Di, 18.02. 6:30 11 2 29 240° SW
Di, 18.02. 6:00 17 3 33 240° SW
Ortszeit Untergrenze Bedeckung Gattung
total tief tief mittel hoch
Di, 18.02. 7:00 1500 m 7/8 7/8 - - -
Di, 18.02. 1:00 1500 m 8/8 8/8 - - -
Mo, 17.02. 19:00 1800 m 8/8 8/8 - - -
Mo, 17.02. 13:00 3900 m 8/8 8/8 - - -
Mo, 17.02. 7:00 7500 m 8/8 0/8 - - -
Mo, 17.02. 1:00 5100 m 8/8 8/8 - - -
So, 16.02. 19:00 6300 m 8/8 8/8 - - -
So, 16.02. 13:00 5400 m 8/8 8/8 - - -
Ortszeit Bedeckungsgrad in Achtel und Wolkenuntergrenze
Di, 18.02. 8:10 2(1470m)
Di, 18.02. 8:00 3(1500m)
Di, 18.02. 7:50 3(1500m)
Di, 18.02. 7:40 1(1410m) 4(1500m)
Di, 18.02. 7:30 1(1410m) 7(1500m)
Di, 18.02. 7:20 1(1410m) 7(1500m)
Di, 18.02. 7:00 7(1500m)
Di, 18.02. 6:30 7(1500m)
Di, 18.02. 6:00 7(1350m) 8(1500m)
Ortszeit Luftdruck NN (hPa) Tendenz (hPa in 3 Std.)
Di, 18.02. 7:00 1028 + 1,0
Di, 18.02. 1:00 1025 + 1,6
Mo, 17.02. 19:00 1021 + 1,5
Mo, 17.02. 13:00 1017 - 0,9
Mo, 17.02. 7:00 1017 + 0,5
Mo, 17.02. 1:00 1016 + 0,4
So, 16.02. 19:00 1016 - 0,1
So, 16.02. 13:00 1019 - 0,7
Ortszeit Luftdruck NN (hPa) Tendenz (hPa in 3 Std.)
Di, 18.02. 8:10 1029 keine Meldung
Di, 18.02. 8:00 1028 + 0,9
Di, 18.02. 7:50 1028 keine Meldung
Di, 18.02. 7:40 1028 keine Meldung
Di, 18.02. 7:30 1028 + 1,0
Di, 18.02. 7:20 1028 keine Meldung
Di, 18.02. 7:00 1028 + 1,0
Di, 18.02. 6:30 1028 + 1,2
Di, 18.02. 6:00 1028 + 1,4
Ortszeit Schneehöhe (cm)
Di, 18.02. 7:00 0
Di, 18.02. 1:00 0
Mo, 17.02. 19:00 0
Mo, 17.02. 13:00 0
Mo, 17.02. 7:00 0
Mo, 17.02. 1:00 0
So, 16.02. 19:00 0
So, 16.02. 13:00 0
Ortszeit Schneehöhe (cm)
Di, 18.02. 8:10 0
Di, 18.02. 8:00 0
Di, 18.02. 7:50 0
Di, 18.02. 7:40 0
Di, 18.02. 7:30 0
Di, 18.02. 7:20 0
Di, 18.02. 7:00 0
Di, 18.02. 6:30 0
Di, 18.02. 6:00 0
Link zu dieser Seite / Seite empfehlen

Das Wetter in ...